Time;durP1;ratioP1;P1;durP2;ratioP2;P2;SDS_P1;SDS_P2;PMS_P1;PMS_P2;Temp;Humidity;BMP_temperature;BMP_pressure;BME280_temperature;BME280_humidity;BME280_pressure;Samples;Min_cycle;Max_cycle;Signal;HPM_P1;HPM_P2
2021/12/16 00:08:37;;;;;;;5.83;1.47;;;16.40;36.70;;;;;;5000651;28;20105;-66
2021/12/16 00:11:19;;;;;;;8.25;2.10;;;16.30;37.40;;;;;;5034183;28;20079;-66
2021/12/16 00:20:01;;;;;;;9.35;2.30;;;16.10;38.90;;;;;;5031222;28;20081;-65
2021/12/16 00:33:30;;;;;;;4.35;1.50;;;15.70;40.70;;;;;;5091758;28;20169;-65
2021/12/16 00:35:57;;;;;;;3.35;1.33;;;15.60;41.30;;;;;;5091915;28;20103;-63
2021/12/16 00:38:23;;;;;;;5.47;1.40;;;15.50;41.50;;;;;;5092323;28;20096;-68
2021/12/16 00:40:50;;;;;;;4.97;1.20;;;15.50;42.00;;;;;;5090068;28;20478;-63
2021/12/16 00:43:32;;;;;;;;;;;15.30;42.50;;;;;;5090499;28;20067;-63
2021/12/16 00:46:16;;;;;;;15.77;2.50;;;15.20;43.30;;;;;;5097066;28;19976;-64
2021/12/16 00:54:10;;;;;;;11.55;2.13;;;15.00;43.80;;;;;;5088586;28;20160;-64
2021/12/16 00:56:42;;;;;;;14.05;1.83;;;14.90;44.30;;;;;;5088889;28;20080;-64
2021/12/16 00:59:10;;;;;;;14.27;2.08;;;14.90;44.10;;;;;;5090582;28;20064;-64
2021/12/16 01:01:50;;;;;;;17.20;2.40;;;14.80;44.80;;;;;;5091681;28;20072;-64
2021/12/16 01:07:18;;;;;;;15.98;2.67;;;14.60;45.40;;;;;;5090683;28;20069;-67
2021/12/16 01:33:41;;;;;;;10.75;3.47;;;14.50;46.70;;;;;;5091189;28;20079;-67
2021/12/16 01:40:24;;;;;;;15.38;3.80;;;13.80;47.70;;;;;;5089633;28;20539;-64
2021/12/16 01:46:25;;;;;;;20.98;3.80;;;13.70;47.90;;;;;;5092784;28;20115;-67
2021/12/16 01:50:57;;;;;;;26.13;4.18;;;13.60;49.20;;;;;;5090320;28;20366;-67
2021/12/16 01:54:11;;;;;;;33.03;3.85;;;13.60;50.60;;;;;;5090547;28;20075;-65
2021/12/16 01:58:50;;;;;;;;;;;13.40;51.10;;;;;;5090586;28;20166;-67
2021/12/16 02:01:30;;;;;;;27.42;4.60;;;13.30;51.10;;;;;;5090043;28;20560;-66
2021/12/16 02:04:01;;;;;;;29.52;4.55;;;13.20;51.10;;;;;;5089646;28;20518;-64
2021/12/16 02:09:37;;;;;;;29.90;4.80;;;13.10;51.70;;;;;;5089642;28;20117;-64
2021/12/16 02:29:23;;;;;;;28.95;6.30;;;12.90;53.00;;;;;;5089164;28;20545;-64
2021/12/16 02:36:54;;;;;;;;;;;12.70;53.80;;;;;;5091175;28;20091;-65
2021/12/16 02:39:31;;;;;;;29.38;6.05;;;12.50;53.60;;;;;;5090882;28;20396;-64
2021/12/16 02:42:04;;;;;;;24.98;5.53;;;12.50;53.40;;;;;;5089453;28;20533;-64
2021/12/16 02:44:39;;;;;;;26.80;6.03;;;12.50;53.40;;;;;;5089745;28;20092;-65
2021/12/16 02:49:55;;;;;;;30.17;6.75;;;12.40;53.40;;;;;;5090336;28;20103;-64
2021/12/16 02:52:25;;;;;;;32.83;8.88;;;12.40;53.10;;;;;;5088450;28;20073;-65
2021/12/16 02:54:52;;;;;;;35.60;9.88;;;12.40;55.00;;;;;;5087926;28;20089;-64
2021/12/16 02:57:19;;;;;;;34.33;8.85;;;12.40;55.80;;;;;;5088712;28;20462;-65
2021/12/16 02:59:47;;;;;;;29.48;8.85;;;12.40;55.00;;;;;;5091172;28;20079;-64
2021/12/16 03:02:17;;;;;;;30.25;9.32;;;12.30;53.50;;;;;;5092384;28;20076;-66
2021/12/16 03:04:48;;;;;;;35.35;9.35;;;12.20;53.10;;;;;;5093631;28;20485;-64
2021/12/16 03:07:15;;;;;;;27.83;8.13;;;12.20;54.40;;;;;;5104356;28;20091;-65
2021/12/16 03:12:46;;;;;;;29.70;8.98;;;12.10;53.70;;;;;;5093903;28;20076;-64
2021/12/16 03:18:24;;;;;;;42.33;10.40;;;12.10;53.80;;;;;;5093559;28;20103;-63
2021/12/16 03:20:57;;;;;;;35.65;9.98;;;12.10;54.50;;;;;;5093967;28;20081;-66
2021/12/16 03:24:28;;;;;;;37.75;11.60;;;12.00;53.50;;;;;;5093682;28;20122;-66
2021/12/16 03:34:27;;;;;;;;;;;12.00;52.80;;;;;;5094205;28;20072;-64
2021/12/16 03:37:15;;;;;;;46.95;16.17;;;12.00;53.30;;;;;;5092496;28;19972;-64
2021/12/16 03:39:56;;;;;;;41.65;13.07;;;12.00;54.10;;;;;;5093250;28;20065;-67
2021/12/16 03:42:31;;;;;;;21.52;8.80;;;11.90;53.90;;;;;;5093358;28;20069;-66
2021/12/16 03:45:06;;;;;;;25.77;6.53;;;12.00;53.30;;;;;;5093223;28;20088;-65
2021/12/16 03:47:41;;;;;;;20.90;5.82;;;11.90;53.30;;;;;;5097633;28;20437;-67
2021/12/16 03:50:13;;;;;;;14.90;4.30;;;11.90;54.10;;;;;;5091606;28;20090;-66
2021/12/16 03:52:40;;;;;;;13.25;4.13;;;11.90;53.70;;;;;;5074332;28;20076;-68
2021/12/16 03:55:09;;;;;;;14.82;3.50;;;11.80;53.40;;;;;;5087217;28;20539;-63
2021/12/16 03:57:36;;;;;;;19.45;4.22;;;11.80;53.20;;;;;;5093389;28;20142;-68
2021/12/16 04:00:27;;;;;;;10.48;3.75;;;11.80;53.90;;;;;;5093514;28;20077;-67
2021/12/16 04:02:54;;;;;;;13.60;3.45;;;11.80;54.70;;;;;;5092329;28;20445;-68
2021/12/16 04:05:21;;;;;;;19.27;3.75;;;11.70;53.50;;;;;;5090480;28;20068;-68
2021/12/16 04:07:48;;;;;;;13.57;3.35;;;11.70;53.60;;;;;;5092099;28;20087;-70
2021/12/16 04:10:34;;;;;;;17.02;3.42;;;11.70;53.80;;;;;;5090835;28;20467;-67
2021/12/16 04:13:04;;;;;;;7.15;2.60;;;11.80;54.30;;;;;;5092867;28;20072;-65
2021/12/16 04:15:31;;;;;;;13.13;3.20;;;11.70;53.40;;;;;;5091704;28;20427;-67
2021/12/16 04:17:58;;;;;;;14.27;4.13;;;11.70;53.10;;;;;;5074572;28;20176;-69
2021/12/16 04:20:25;;;;;;;;;;;11.70;53.60;;;;;;5091565;28;20611;-66
2021/12/16 04:22:52;;;;;;;14.88;4.30;;;11.70;54.30;;;;;;5092263;28;20063;-69
2021/12/16 04:25:23;;;;;;;12.98;3.95;;;11.70;56.10;;;;;;5085668;28;20562;-68
2021/12/16 04:27:54;;;;;;;9.52;3.70;;;11.70;54.50;;;;;;5091325;28;20163;-66
2021/12/16 04:30:22;;;;;;;14.52;3.97;;;11.60;53.90;;;;;;5091875;28;20104;-68
2021/12/16 04:32:49;;;;;;;11.88;3.45;;;11.60;53.50;;;;;;5095006;28;20125;-68
2021/12/16 04:35:17;;;;;;;15.05;3.33;;;11.60;54.50;;;;;;5091465;28;20103;-64
2021/12/16 04:37:44;;;;;;;12.55;3.90;;;11.50;53.90;;;;;;5091853;28;20092;-64
2021/12/16 04:40:12;;;;;;;14.77;4.05;;;11.50;55.20;;;;;;5090156;28;20079;-64
2021/12/16 04:42:40;;;;;;;19.80;3.45;;;11.50;56.00;;;;;;5072813;28;20080;-63
2021/12/16 04:45:11;;;;;;;14.80;4.55;;;11.40;55.30;;;;;;5073958;28;20543;-60
2021/12/16 04:47:38;;;;;;;17.27;3.78;;;11.40;55.50;;;;;;5089645;28;20096;-63
2021/12/16 04:50:07;;;;;;;12.48;3.50;;;11.40;56.90;;;;;;5092921;28;20155;-67
2021/12/16 04:52:34;;;;;;;17.95;3.70;;;11.30;56.10;;;;;;5090278;28;20088;-63
2021/12/16 04:55:01;;;;;;;9.50;3.30;;;11.20;55.70;;;;;;5090583;28;20097;-64
2021/12/16 04:57:27;;;;;;;13.23;3.20;;;11.20;55.90;;;;;;5073382;28;20084;-65
2021/12/16 04:59:53;;;;;;;;;;;11.20;56.00;;;;;;5089427;28;20535;-63
2021/12/16 05:02:22;;;;;;;22.02;3.63;;;11.20;56.20;;;;;;5089932;28;20005;-65
2021/12/16 05:04:49;;;;;;;18.90;3.35;;;11.20;55.90;;;;;;5089777;28;20073;-63
2021/12/16 05:07:16;;;;;;;11.02;3.45;;;11.10;55.60;;;;;;5091997;28;20159;-63
2021/12/16 05:12:33;;;;;;;14.10;3.33;;;11.00;55.70;;;;;;5090417;28;20122;-63
2021/12/16 05:14:59;;;;;;;18.25;3.97;;;11.00;57.40;;;;;;5089717;28;20087;-64
2021/12/16 05:17:31;;;;;;;29.80;12.75;;;11.00;57.10;;;;;;5089395;28;20128;-65
2021/12/16 05:20:04;;;;;;;25.35;11.73;;;10.90;57.00;;;;;;5073065;28;20537;-64
2021/12/16 05:25:26;;;;;;;25.48;6.13;;;10.80;58.00;;;;;;5090249;28;20123;-62
2021/12/16 05:27:53;;;;;;;18.88;5.93;;;10.80;58.50;;;;;;5091361;28;20765;-66
2021/12/16 05:30:19;;;;;;;;;;;10.80;58.10;;;;;;5089485;28;20170;-63
2021/12/16 05:32:46;;;;;;;27.13;4.70;;;10.70;58.10;;;;;;5089890;28;20005;-62
2021/12/16 05:35:21;;;;;;;20.27;4.57;;;10.70;58.30;;;;;;5088960;28;20091;-64
2021/12/16 05:37:48;;;;;;;25.40;5.22;;;10.60;58.60;;;;;;5088483;28;20414;-64
2021/12/16 05:40:16;;;;;;;;;;;10.60;58.50;;;;;;5071865;28;20118;-61
2021/12/16 05:42:43;;;;;;;16.85;3.97;;;10.40;58.90;;;;;;5088998;28;20058;-63
2021/12/16 05:45:11;;;;;;;21.83;4.78;;;10.40;59.00;;;;;;5071849;28;20065;-63
2021/12/16 05:47:38;;;;;;;23.55;4.63;;;10.30;59.60;;;;;;5098988;28;20578;-61
2021/12/16 05:50:07;;;;;;;23.65;5.68;;;10.30;60.40;;;;;;5087903;28;21082;-65
2021/12/16 05:52:33;;;;;;;20.38;5.10;;;10.30;60.30;;;;;;5089042;28;20096;-63
2021/12/16 05:55:00;;;;;;;;;;;10.20;59.90;;;;;;5090396;28;20175;-64
2021/12/16 05:57:27;;;;;;;28.30;5.10;;;10.30;60.70;;;;;;5090153;28;19979;-64
2021/12/16 05:59:53;;;;;;;35.42;6.95;;;10.20;60.60;;;;;;5088291;28;20079;-64
2021/12/16 06:02:19;;;;;;;;;;;10.20;60.90;;;;;;5088480;28;20203;-62
2021/12/16 06:04:45;;;;;;;41.00;8.10;;;10.20;60.60;;;;;;5089084;28;19956;-63
2021/12/16 06:07:12;;;;;;;;;;;10.10;61.20;;;;;;5091069;28;20160;-63
2021/12/16 06:09:38;;;;;;;45.30;10.68;;;10.10;61.20;;;;;;5088192;28;19964;-65
2021/12/16 06:12:04;;;;;;;;;;;10.10;61.10;;;;;;5089554;28;20339;-65
2021/12/16 06:27:54;;;;;;;112.68;26.65;;;10.10;61.90;;;;;;5088121;28;20603;-66
2021/12/16 06:30:28;;;;;;;125.18;27.75;;;10.00;61.60;;;;;;5088143;28;20554;-63
2021/12/16 06:32:55;;;;;;;122.57;27.95;;;10.00;62.20;;;;;;5087702;28;20117;-65
2021/12/16 06:35:23;;;;;;;118.30;28.45;;;10.00;63.50;;;;;;5087451;28;20084;-64
2021/12/16 06:37:50;;;;;;;121.63;29.05;;;9.90;63.50;;;;;;5086676;28;20097;-66
2021/12/16 06:40:18;;;;;;;120.00;29.30;;;9.80;63.20;;;;;;5086865;28;20092;-62
2021/12/16 06:42:46;;;;;;;119.72;29.25;;;9.80;63.80;;;;;;5070820;28;20441;-66
2021/12/16 06:45:19;;;;;;;122.20;31.80;;;9.80;64.40;;;;;;5086589;28;20129;-64
2021/12/16 06:47:54;;;;;;;134.55;30.80;;;9.80;64.80;;;;;;5087384;28;20120;-64
2021/12/16 06:50:35;;;;;;;134.77;28.85;;;9.80;65.80;;;;;;5086767;28;20568;-64
2021/12/16 06:53:04;;;;;;;122.22;29.85;;;9.70;64.50;;;;;;5089306;28;20077;-64
2021/12/16 06:58:06;;;;;;;;;;;9.70;64.70;;;;;;5091872;28;20146;-60
2021/12/16 07:00:40;;;;;;;103.28;28.98;;;9.60;64.90;;;;;;5087567;28;19964;-64
2021/12/16 07:03:16;;;;;;;134.85;31.98;;;9.60;63.90;;;;;;5087973;28;20088;-66
2021/12/16 07:05:43;;;;;;;;;;;9.60;64.80;;;;;;5087112;28;20095;-64
2021/12/16 07:08:16;;;;;;;143.73;30.93;;;9.60;66.00;;;;;;5086971;28;19960;-65
2021/12/16 07:10:45;;;;;;;111.95;30.15;;;9.50;65.50;;;;;;5087151;28;20411;-65
2021/12/16 07:13:19;;;;;;;123.38;32.15;;;9.50;65.50;;;;;;5089539;28;20103;-66
2021/12/16 07:15:47;;;;;;;127.40;31.42;;;9.50;66.80;;;;;;5088274;28;20100;-65
2021/12/16 07:18:14;;;;;;;130.88;33.47;;;9.50;68.10;;;;;;5086475;28;20146;-65
2021/12/16 07:20:41;;;;;;;118.90;30.23;;;9.40;67.60;;;;;;5088762;28;20114;-65
2021/12/16 07:23:09;;;;;;;124.97;29.05;;;9.40;67.60;;;;;;5088273;28;20523;-61
2021/12/16 07:25:37;;;;;;;111.93;29.30;;;9.40;67.00;;;;;;5087363;28;20481;-64
2021/12/16 07:28:07;;;;;;;114.95;29.92;;;9.30;65.70;;;;;;5086756;28;20123;-62
2021/12/16 07:30:36;;;;;;;125.38;28.80;;;9.20;65.60;;;;;;5086505;28;20080;-63
2021/12/16 07:33:03;;;;;;;101.75;28.65;;;9.30;65.20;;;;;;5087887;28;20072;-64
2021/12/16 07:35:31;;;;;;;101.45;30.38;;;9.30;64.80;;;;;;5088024;28;20431;-62
2021/12/16 07:37:57;;;;;;;91.45;29.20;;;9.30;64.40;;;;;;5087088;28;20088;-63
2021/12/16 07:40:26;;;;;;;94.93;28.65;;;9.30;64.50;;;;;;5086005;28;20080;-64
2021/12/16 07:45:43;;;;;;;95.13;27.63;;;9.30;64.00;;;;;;5088047;28;21623;-64
2021/12/16 07:48:12;;;;;;;99.28;29.45;;;9.30;63.90;;;;;;5089778;28;20224;-63
2021/12/16 07:50:40;;;;;;;93.00;28.73;;;9.30;65.20;;;;;;5088874;28;20092;-64
2021/12/16 07:53:07;;;;;;;87.78;27.52;;;9.30;65.60;;;;;;5090051;28;20073;-63
2021/12/16 07:55:34;;;;;;;97.40;28.10;;;9.30;63.90;;;;;;5090877;28;20083;-64
2021/12/16 07:58:03;;;;;;;80.32;26.80;;;9.30;63.70;;;;;;5092653;28;20150;-60
2021/12/16 08:00:33;;;;;;;90.40;26.85;;;9.30;64.70;;;;;;5088581;28;20089;-63
2021/12/16 08:03:06;;;;;;;89.50;28.73;;;9.20;63.50;;;;;;5089934;28;20079;-63
2021/12/16 08:05:38;;;;;;;86.30;26.65;;;9.10;64.40;;;;;;5088262;28;20093;-64
2021/12/16 08:08:05;;;;;;;82.22;25.98;;;9.20;65.30;;;;;;5091003;28;20689;-61
2021/12/16 08:10:33;;;;;;;79.47;24.67;;;9.20;64.20;;;;;;5090943;28;20494;-64
2021/12/16 08:12:59;;;;;;;89.10;26.42;;;9.10;63.30;;;;;;5090985;28;20127;-63
2021/12/16 08:15:26;;;;;;;65.35;23.67;;;9.20;63.70;;;;;;5089389;28;20133;-61
2021/12/16 08:17:54;;;;;;;;;;;9.20;63.90;;;;;;5090200;28;20569;-63
2021/12/16 08:20:21;;;;;;;69.32;24.40;;;9.20;63.80;;;;;;5088390;28;19972;-63
2021/12/16 08:22:50;;;;;;;76.10;25.20;;;9.10;63.80;;;;;;5093437;28;20073;-65
2021/12/16 08:25:20;;;;;;;86.78;28.35;;;9.10;63.60;;;;;;5089997;28;20104;-64
2021/12/16 08:27:48;;;;;;;96.53;31.15;;;9.10;63.20;;;;;;5089582;28;20089;-62
2021/12/16 08:30:17;;;;;;;95.00;32.47;;;9.10;62.60;;;;;;5088870;28;20129;-62
2021/12/16 08:32:44;;;;;;;94.35;33.42;;;9.10;63.60;;;;;;5089491;28;20107;-62
2021/12/16 08:35:12;;;;;;;99.97;33.25;;;9.10;63.60;;;;;;5088925;28;20079;-62
2021/12/16 08:37:39;;;;;;;93.25;33.10;;;9.10;64.30;;;;;;5089458;28;20115;-64
2021/12/16 08:40:15;;;;;;;80.90;31.48;;;9.10;63.90;;;;;;5089192;28;20065;-62
2021/12/16 08:42:42;;;;;;;78.53;28.17;;;9.00;64.20;;;;;;5088319;28;20101;-65
2021/12/16 08:45:16;;;;;;;83.50;26.85;;;9.00;64.90;;;;;;5088416;28;20582;-64
2021/12/16 08:47:43;;;;;;;65.63;27.15;;;9.00;64.60;;;;;;5089064;28;20515;-63
2021/12/16 08:50:12;;;;;;;74.80;26.23;;;8.90;63.40;;;;;;5072336;28;20171;-64
2021/12/16 08:52:39;;;;;;;84.47;26.35;;;8.80;63.60;;;;;;5088674;28;20087;-64
2021/12/16 08:55:05;;;;;;;;;;;8.80;65.10;;;;;;5089707;28;20090;-63
2021/12/16 08:57:32;;;;;;;90.07;27.30;;;8.80;64.90;;;;;;5086239;28;19976;-62
2021/12/16 08:59:59;;;;;;;87.53;26.98;;;8.70;65.80;;;;;;5089059;28;20382;-61
2021/12/16 09:02:25;;;;;;;67.80;22.65;;;8.50;65.30;;;;;;5088569;28;20080;-62
2021/12/16 09:04:52;;;;;;;64.78;24.33;;;8.40;64.70;;;;;;5088801;28;20073;-62
2021/12/16 09:07:19;;;;;;;72.75;25.58;;;8.40;64.50;;;;;;5088162;28;20068;-64
2021/12/16 09:09:47;;;;;;;69.15;22.83;;;8.40;64.20;;;;;;5087525;28;20435;-64
2021/12/16 09:14:59;;;;;;;65.47;23.63;;;8.50;64.00;;;;;;5088632;28;20064;-65
2021/12/16 09:17:27;;;;;;;70.68;24.48;;;8.50;63.60;;;;;;5088195;28;20088;-64
2021/12/16 09:19:55;;;;;;;68.25;25.67;;;8.40;64.10;;;;;;5087518;28;20117;-65
2021/12/16 09:22:23;;;;;;;71.20;24.95;;;8.30;65.10;;;;;;5088232;28;20092;-64
2021/12/16 09:24:51;;;;;;;81.97;24.67;;;8.30;66.90;;;;;;5089724;28;20084;-65
2021/12/16 09:27:19;;;;;;;66.75;25.15;;;8.30;66.90;;;;;;5085763;28;20112;-66
2021/12/16 09:29:47;;;;;;;61.08;23.90;;;8.30;66.90;;;;;;5086836;28;20116;-63
2021/12/16 09:32:14;;;;;;;67.57;23.40;;;8.30;67.20;;;;;;5088572;28;20152;-64
2021/12/16 09:34:43;;;;;;;58.55;22.00;;;8.30;66.20;;;;;;5088818;28;20170;-63
2021/12/16 09:37:09;;;;;;;52.15;20.45;;;8.30;64.90;;;;;;5089138;28;20088;-64
2021/12/16 09:39:37;;;;;;;58.90;21.02;;;8.30;63.90;;;;;;5089157;28;20542;-63
2021/12/16 09:42:06;;;;;;;50.38;20.67;;;8.30;64.30;;;;;;5090097;28;20064;-65
2021/12/16 09:44:33;;;;;;;54.80;20.23;;;8.30;64.10;;;;;;5088371;28;20079;-63
2021/12/16 09:47:02;;;;;;;63.22;20.30;;;8.30;63.70;;;;;;5089207;28;20556;-65
2021/12/16 09:49:28;;;;;;;57.72;21.55;;;8.20;63.00;;;;;;5071884;28;20105;-63
2021/12/16 09:51:59;;;;;;;56.72;19.85;;;8.20;62.90;;;;;;5087098;28;20522;-63
2021/12/16 09:54:32;;;;;;;54.35;19.38;;;8.20;62.90;;;;;;5089227;28;20108;-63
2021/12/16 09:56:59;;;;;;;52.85;19.95;;;8.30;62.90;;;;;;5088209;28;20526;-63
2021/12/16 09:59:28;;;;;;;61.35;20.55;;;8.20;62.70;;;;;;5087001;28;20531;-63
2021/12/16 10:01:57;;;;;;;50.03;20.33;;;8.20;64.90;;;;;;5088670;28;20531;-64
2021/12/16 10:04:31;;;;;;;57.20;19.10;;;8.20;65.00;;;;;;5089561;28;20080;-64
2021/12/16 10:07:00;;;;;;;53.47;19.30;;;8.10;64.60;;;;;;5089117;28;20076;-64
2021/12/16 10:09:28;;;;;;;63.28;19.27;;;8.00;64.60;;;;;;5086871;28;20072;-66
2021/12/16 10:11:57;;;;;;;43.03;19.25;;;8.00;65.60;;;;;;5086779;28;20083;-64
2021/12/16 10:19:38;;;;;;;47.47;17.38;;;7.90;65.10;;;;;;5088346;28;20180;-65
2021/12/16 10:22:16;;;;;;;;;;;7.80;63.60;;;;;;5087418;28;20084;-64
2021/12/16 10:24:43;;;;;;;42.10;14.57;;;7.80;63.30;;;;;;5088650;28;20433;-64
2021/12/16 10:27:13;;;;;;;44.10;14.45;;;7.90;62.70;;;;;;5087852;28;20161;-63
2021/12/16 10:29:44;;;;;;;41.35;13.10;;;7.90;61.60;;;;;;5088103;28;20072;-63
2021/12/16 10:32:31;;;;;;;36.17;12.52;;;7.90;61.30;;;;;;5088719;28;20461;-66
2021/12/16 10:34:59;;;;;;;32.30;11.75;;;7.80;61.50;;;;;;5087737;28;20145;-64
2021/12/16 10:37:34;;;;;;;36.00;11.23;;;7.90;61.60;;;;;;5088633;28;20112;-65
2021/12/16 10:40:24;;;;;;;19.40;7.47;;;7.90;60.90;;;;;;5087479;28;20092;-64
2021/12/16 10:42:53;;;;;;;19.52;5.28;;;7.90;59.40;;;;;;5086078;28;20084;-63
2021/12/16 10:45:51;;;;;;;13.25;5.40;;;7.90;58.50;;;;;;5087703;28;20151;-65
2021/12/16 10:48:23;;;;;;;12.98;4.80;;;7.90;58.90;;;;;;5086037;28;20092;-65
2021/12/16 10:51:08;;;;;;;15.82;4.65;;;7.90;58.60;;;;;;5086906;28;20089;-65
2021/12/16 10:54:19;;;;;;;13.35;4.95;;;7.90;58.50;;;;;;5085906;28;20558;-63
2021/12/16 10:57:22;;;;;;;11.50;4.50;;;7.90;60.00;;;;;;5031268;28;20097;-64
2021/12/16 10:59:58;;;;;;;17.63;4.68;;;7.90;60.50;;;;;;5034584;28;20069;-63
2021/12/16 11:02:30;;;;;;;14.52;4.15;;;7.80;59.70;;;;;;5028515;28;20168;-64
2021/12/16 11:05:03;;;;;;;9.43;4.28;;;7.80;59.00;;;;;;5016251;28;20671;-64
2021/12/16 11:07:55;;;;;;;14.60;3.97;;;7.80;59.70;;;;;;5032265;28;20078;-63
2021/12/16 11:10:27;;;;;;;15.35;4.88;;;7.90;59.60;;;;;;5049366;28;20080;-62
2021/12/16 11:12:56;;;;;;;12.55;4.60;;;7.90;58.80;;;;;;5030235;28;20120;-63
2021/12/16 11:15:29;;;;;;;14.52;3.95;;;7.80;58.60;;;;;;5031146;28;20571;-64
2021/12/16 11:18:13;;;;;;;10.02;4.22;;;7.80;59.00;;;;;;5030176;28;20101;-63
2021/12/16 11:20:45;;;;;;;12.57;4.10;;;7.80;59.10;;;;;;5037240;28;20105;-63
2021/12/16 11:23:20;;;;;;;14.48;3.78;;;7.80;59.20;;;;;;5036178;28;20124;-64
2021/12/16 11:25:53;;;;;;;11.18;3.80;;;7.90;58.70;;;;;;5053114;28;20216;-63
2021/12/16 11:28:21;;;;;;;8.05;3.20;;;7.80;59.30;;;;;;5038867;28;20090;-65
2021/12/16 11:31:10;;;;;;;9.00;3.30;;;7.90;59.20;;;;;;5065183;28;20087;-63
2021/12/16 11:33:47;;;;;;;7.28;2.83;;;7.80;59.10;;;;;;5090348;28;20465;-64
2021/12/16 11:36:23;;;;;;;8.68;3.15;;;7.90;59.40;;;;;;5074422;28;20083;-63
2021/12/16 11:38:51;;;;;;;11.63;3.45;;;7.90;60.00;;;;;;5090267;28;20542;-64
2021/12/16 11:41:26;;;;;;;9.00;3.05;;;7.90;59.90;;;;;;5089591;28;20104;-64
2021/12/16 11:44:04;;;;;;;9.35;3.33;;;7.90;59.80;;;;;;5089358;28;20076;-64
2021/12/16 11:46:50;;;;;;;7.22;2.90;;;7.90;59.40;;;;;;5090192;28;20543;-64
2021/12/16 11:49:23;;;;;;;7.63;3.28;;;7.80;61.30;;;;;;5055751;28;20565;-63
2021/12/16 11:52:14;;;;;;;12.05;2.75;;;7.80;62.30;;;;;;5089789;28;20069;-63
2021/12/16 11:54:43;;;;;;;11.15;3.03;;;7.90;61.80;;;;;;5091264;28;20151;-65
2021/12/16 11:57:27;;;;;;;10.68;2.08;;;7.80;60.90;;;;;;5087515;28;20088;-64
2021/12/16 11:59:59;;;;;;;4.88;2.00;;;7.60;60.30;;;;;;5072845;28;20077;-64
2021/12/16 12:02:37;;;;;;;6.25;1.60;;;7.70;60.20;;;;;;5089182;28;20097;-64
2021/12/16 12:05:25;;;;;;;4.28;1.15;;;7.70;59.40;;;;;;5073672;28;20121;-64
2021/12/16 12:07:59;;;;;;;4.63;1.42;;;7.70;59.40;;;;;;5073721;28;20084;-63
2021/12/16 12:11:01;;;;;;;3.45;0.98;;;7.70;60.60;;;;;;5090374;28;20157;-63
2021/12/16 12:13:36;;;;;;;3.60;1.00;;;7.70;61.30;;;;;;5076005;28;20079;-62
2021/12/16 12:16:14;;;;;;;5.40;1.33;;;7.70;62.00;;;;;;5090392;28;20083;-62
2021/12/16 12:18:46;;;;;;;3.22;1.13;;;7.70;60.70;;;;;;5089937;28;20167;-62
2021/12/16 12:21:18;;;;;;;5.05;0.90;;;7.70;60.20;;;;;;5090554;28;20077;-64
2021/12/16 12:23:46;;;;;;;2.47;0.90;;;7.70;60.60;;;;;;5088691;28;20076;-64
2021/12/16 12:26:16;;;;;;;3.50;0.90;;;7.70;60.90;;;;;;5088572;28;20112;-65
2021/12/16 12:28:53;;;;;;;3.25;1.05;;;7.70;61.20;;;;;;5090710;28;20205;-62
2021/12/16 12:31:23;;;;;;;2.97;0.80;;;7.70;60.10;;;;;;5088147;28;20069;-63
2021/12/16 12:33:49;;;;;;;2.05;0.70;;;7.70;59.70;;;;;;5073133;28;20528;-63
2021/12/16 12:36:20;;;;;;;3.97;0.70;;;7.60;58.60;;;;;;5089969;28;20095;-64
2021/12/16 12:38:47;;;;;;;2.28;0.90;;;7.60;58.30;;;;;;5089599;28;21001;-62
2021/12/16 12:41:14;;;;;;;4.35;0.70;;;7.60;57.90;;;;;;5090349;28;20218;-63
2021/12/16 12:43:40;;;;;;;5.70;0.90;;;7.60;57.60;;;;;;5089633;28;20076;-63
2021/12/16 12:46:08;;;;;;;2.92;0.82;;;7.60;57.40;;;;;;5091262;28;20522;-62
2021/12/16 12:48:37;;;;;;;2.88;0.80;;;7.70;57.30;;;;;;5088531;28;20104;-64
2021/12/16 12:51:05;;;;;;;4.40;0.73;;;7.60;57.40;;;;;;5089239;28;20100;-62
2021/12/16 12:53:39;;;;;;;3.60;1.00;;;7.60;57.60;;;;;;5088612;28;20065;-63
2021/12/16 12:56:16;;;;;;;5.50;0.90;;;7.60;57.60;;;;;;5088389;28;20088;-62
2021/12/16 12:58:53;;;;;;;2.45;0.60;;;7.60;57.80;;;;;;5091245;28;20101;-63
2021/12/16 13:01:53;;;;;;;4.13;1.38;;;7.60;58.10;;;;;;5087537;28;20079;-64
2021/12/16 13:04:27;;;;;;;3.00;1.17;;;7.60;59.00;;;;;;5089463;28;20065;-62
2021/12/16 13:07:06;;;;;;;4.03;1.10;;;7.60;60.00;;;;;;5071299;28;20072;-62
2021/12/16 13:09:45;;;;;;;3.55;1.00;;;7.50;59.00;;;;;;5072463;28;20458;-62
2021/12/16 13:12:43;;;;;;;6.03;1.40;;;7.50;58.80;;;;;;5091803;28;20115;-62
2021/12/16 13:24:25;;;;;;;11.43;2.10;;;7.30;58.40;;;;;;5069146;28;20542;-63
2021/12/16 13:27:24;;;;;;;4.93;1.88;;;7.30;57.90;;;;;;5072771;28;20121;-63
2021/12/16 13:32:46;;;;;;;8.20;2.00;;;7.20;57.70;;;;;;5089592;28;20072;-63
2021/12/16 13:37:53;;;;;;;12.90;1.90;;;7.20;58.10;;;;;;5088664;28;20124;-63
2021/12/16 13:40:32;;;;;;;8.15;1.60;;;7.20;59.90;;;;;;5089426;28;20084;-63
2021/12/16 13:43:03;;;;;;;6.13;1.80;;;7.30;59.60;;;;;;5070915;28;20079;-63
2021/12/16 13:45:49;;;;;;;8.15;1.90;;;7.20;59.30;;;;;;5089339;28;20105;-63
2021/12/16 13:48:50;;;;;;;7.70;1.83;;;7.20;58.80;;;;;;5092309;28;20157;-63
2021/12/16 14:03:18;;;;;;;12.93;2.00;;;7.10;59.90;;;;;;5087717;28;20091;-63
2021/12/16 14:06:14;;;;;;;11.68;2.53;;;7.00;60.00;;;;;;5088018;28;20083;-62
2021/12/16 14:08:48;;;;;;;17.38;3.03;;;7.00;60.80;;;;;;5086337;28;20168;-63
2021/12/16 14:17:29;;;;;;;20.52;4.88;;;6.80;63.40;;;;;;5088834;28;20492;-65
2021/12/16 14:23:45;;;;;;;21.13;6.50;;;6.80;62.30;;;;;;5052387;28;20167;-64
2021/12/16 14:27:02;;;;;;;28.83;8.13;;;6.80;63.10;;;;;;5087191;28;20108;-61
2021/12/16 14:40:39;;;;;;;35.58;11.63;;;6.60;64.30;;;;;;5070414;28;20536;-64
2021/12/16 14:45:45;;;;;;;32.65;12.38;;;6.60;65.60;;;;;;5049473;28;20475;-62
2021/12/16 14:48:25;;;;;;;48.30;12.35;;;6.60;64.70;;;;;;5034752;28;20084;-63
2021/12/16 14:51:01;;;;;;;46.17;14.32;;;6.60;64.50;;;;;;5050241;28;20096;-63
2021/12/16 14:53:38;;;;;;;34.07;12.07;;;6.70;65.20;;;;;;5052469;28;20077;-63
2021/12/16 14:56:27;;;;;;;32.55;12.23;;;6.70;64.60;;;;;;5033660;28;20130;-62
2021/12/16 14:58:57;;;;;;;37.80;11.82;;;6.70;64.40;;;;;;5031131;28;20073;-63
2021/12/16 15:01:26;;;;;;;42.95;13.73;;;6.60;64.50;;;;;;5057328;28;20078;-62
2021/12/16 15:03:53;;;;;;;46.22;12.85;;;6.60;65.10;;;;;;5037644;28;20074;-63
2021/12/16 15:06:27;;;;;;;34.53;13.10;;;6.70;64.90;;;;;;5039255;28;20107;-64
2021/12/16 15:09:14;;;;;;;43.00;15.13;;;6.70;63.40;;;;;;5054629;28;20163;-65
2021/12/16 15:11:54;;;;;;;33.53;12.20;;;6.60;63.50;;;;;;5037817;28;20076;-63
2021/12/16 15:17:05;;;;;;;35.60;13.85;;;6.70;65.00;;;;;;5054779;28;20584;-64
2021/12/16 15:44:52;;;;;;;39.80;13.32;;;7.40;61.80;;;;;;5092296;28;20125;-62
2021/12/16 15:47:19;;;;;;;51.33;12.45;;;7.60;61.30;;;;;;5074499;28;20084;-64
2021/12/16 15:49:46;;;;;;;57.88;12.82;;;7.70;62.00;;;;;;5090859;28;20092;-63
2021/12/16 15:52:14;;;;;;;71.53;14.10;;;7.90;61.20;;;;;;5085395;28;20145;-63
2021/12/16 15:54:47;;;;;;;42.72;12.43;;;8.20;59.80;;;;;;5073646;28;20187;-64
2021/12/16 15:57:15;;;;;;;46.63;13.07;;;8.60;59.70;;;;;;5092296;27;20214;-63
2021/12/16 15:59:48;;;;;;;44.00;13.68;;;8.90;57.30;;;;;;5090407;28;20072;-63
2021/12/16 16:02:19;;;;;;;40.15;12.63;;;9.20;57.20;;;;;;5089326;28;20107;-63
2021/12/16 16:04:46;;;;;;;60.97;12.82;;;9.70;55.50;;;;;;5091932;28;20084;-64
2021/12/16 16:07:14;;;;;;;43.63;12.00;;;10.10;54.60;;;;;;5071457;28;20080;-63
2021/12/16 16:09:50;;;;;;;34.53;10.98;;;10.60;53.40;;;;;;5091670;28;20549;-63
2021/12/16 16:12:23;;;;;;;35.33;10.93;;;11.20;52.40;;;;;;5074218;28;20099;-64
2021/12/16 16:14:50;;;;;;;39.95;10.80;;;11.90;50.40;;;;;;5089282;28;20126;-64
2021/12/16 16:17:20;;;;;;;38.30;10.55;;;12.60;49.90;;;;;;5090203;28;20137;-62
2021/12/16 16:19:49;;;;;;;43.92;11.40;;;13.00;47.30;;;;;;5090793;28;20088;-62
2021/12/16 16:22:16;;;;;;;53.05;11.88;;;13.30;46.80;;;;;;5072722;28;20065;-63
2021/12/16 16:24:47;;;;;;;26.63;9.07;;;13.60;47.30;;;;;;5091069;28;20088;-62
2021/12/16 16:27:17;;;;;;;29.23;8.85;;;13.40;45.50;;;;;;5091475;28;20125;-63
2021/12/16 16:29:50;;;;;;;31.83;8.20;;;13.80;44.70;;;;;;5088828;28;20462;-65
2021/12/16 16:32:18;;;;;;;22.45;7.20;;;14.50;43.90;;;;;;5097889;28;20092;-64
2021/12/16 16:34:50;;;;;;;23.20;6.90;;;15.20;43.40;;;;;;5088883;28;20108;-61
2021/12/16 16:37:31;;;;;;;21.60;6.10;;;16.00;41.80;;;;;;5090563;28;20107;-64
2021/12/16 16:40:16;;;;;;;18.30;6.68;;;16.70;40.50;;;;;;5088932;28;20075;-62
2021/12/16 16:42:43;;;;;;;27.42;6.50;;;17.50;39.40;;;;;;5073131;28;20089;-64
2021/12/16 16:45:29;;;;;;;25.50;7.00;;;17.80;39.10;;;;;;5072409;28;20534;-62
2021/12/16 16:48:05;;;;;;;49.22;8.18;;;18.20;38.20;;;;;;5058931;28;20081;-61
2021/12/16 16:50:32;;;;;;;21.77;6.20;;;18.80;37.10;;;;;;5089892;28;20099;-61
2021/12/16 16:52:59;;;;;;;16.77;6.00;;;19.10;35.70;;;;;;5088752;28;20110;-61